sensor_id;sensor_type;location;lat;lon;timestamp;P1;durP1;ratioP1;P2;durP2;ratioP2
36709;SDS011;22694;51.040;3.684;2023-02-15T00:01:31;23.55;;;17.85;;
36709;SDS011;22694;51.040;3.684;2023-02-15T00:03:56;22.33;;;17.15;;
36709;SDS011;22694;51.040;3.684;2023-02-15T00:06:22;22.33;;;17.85;;
36709;SDS011;22694;51.040;3.684;2023-02-15T00:08:48;19.88;;;17.23;;
36709;SDS011;22694;51.040;3.684;2023-02-15T00:11:15;23.75;;;17.42;;
36709;SDS011;22694;51.040;3.684;2023-02-15T00:14:02;20.98;;;16.27;;
36709;SDS011;22694;51.040;3.684;2023-02-15T00:16:38;18.90;;;15.80;;
36709;SDS011;22694;51.040;3.684;2023-02-15T00:19:06;19.52;;;16.00;;
36709;SDS011;22694;51.040;3.684;2023-02-15T00:21:32;18.00;;;15.35;;
36709;SDS011;22694;51.040;3.684;2023-02-15T00:23:59;18.13;;;15.10;;
36709;SDS011;22694;51.040;3.684;2023-02-15T00:26:26;18.30;;;14.45;;
36709;SDS011;22694;51.040;3.684;2023-02-15T00:28:52;15.63;;;13.85;;
36709;SDS011;22694;51.040;3.684;2023-02-15T00:31:18;17.48;;;14.63;;
36709;SDS011;22694;51.040;3.684;2023-02-15T00:33:44;16.92;;;14.65;;
36709;SDS011;22694;51.040;3.684;2023-02-15T00:36:10;16.23;;;14.25;;
36709;SDS011;22694;51.040;3.684;2023-02-15T00:38:36;16.48;;;13.73;;
36709;SDS011;22694;51.040;3.684;2023-02-15T00:41:03;17.52;;;14.73;;
36709;SDS011;22694;51.040;3.684;2023-02-15T00:43:30;15.38;;;12.93;;
36709;SDS011;22694;51.040;3.684;2023-02-15T00:45:58;15.70;;;13.48;;
36709;SDS011;22694;51.040;3.684;2023-02-15T00:48:24;16.10;;;13.65;;
36709;SDS011;22694;51.040;3.684;2023-02-15T00:50:51;15.45;;;12.75;;
36709;SDS011;22694;51.040;3.684;2023-02-15T00:53:18;15.70;;;12.90;;
36709;SDS011;22694;51.040;3.684;2023-02-15T00:55:44;15.23;;;12.93;;
36709;SDS011;22694;51.040;3.684;2023-02-15T00:58:10;15.32;;;13.70;;
36709;SDS011;22694;51.040;3.684;2023-02-15T01:00:37;15.75;;;13.15;;
36709;SDS011;22694;51.040;3.684;2023-02-15T01:03:04;17.10;;;13.23;;
36709;SDS011;22694;51.040;3.684;2023-02-15T01:05:30;16.08;;;13.57;;
36709;SDS011;22694;51.040;3.684;2023-02-15T01:07:57;16.25;;;12.93;;
36709;SDS011;22694;51.040;3.684;2023-02-15T01:10:23;16.42;;;13.27;;
36709;SDS011;22694;51.040;3.684;2023-02-15T01:12:50;18.27;;;13.95;;
36709;SDS011;22694;51.040;3.684;2023-02-15T01:15:16;19.17;;;13.75;;
36709;SDS011;22694;51.040;3.684;2023-02-15T01:17:41;17.73;;;14.05;;
36709;SDS011;22694;51.040;3.684;2023-02-15T01:20:09;15.93;;;14.02;;
36709;SDS011;22694;51.040;3.684;2023-02-15T01:22:35;16.05;;;14.35;;
36709;SDS011;22694;51.040;3.684;2023-02-15T01:25:00;17.00;;;14.73;;
36709;SDS011;22694;51.040;3.684;2023-02-15T01:27:26;17.27;;;14.45;;
36709;SDS011;22694;51.040;3.684;2023-02-15T01:29:51;18.58;;;14.85;;
36709;SDS011;22694;51.040;3.684;2023-02-15T01:32:17;17.50;;;15.60;;
36709;SDS011;22694;51.040;3.684;2023-02-15T01:34:43;18.80;;;15.57;;
36709;SDS011;22694;51.040;3.684;2023-02-15T01:37:08;16.92;;;15.00;;
36709;SDS011;22694;51.040;3.684;2023-02-15T01:39:34;20.35;;;15.65;;
36709;SDS011;22694;51.040;3.684;2023-02-15T01:41:59;18.65;;;15.32;;
36709;SDS011;22694;51.040;3.684;2023-02-15T01:55:24;17.98;;;15.45;;
36709;SDS011;22694;51.040;3.684;2023-02-15T01:57:53;19.85;;;15.13;;
36709;SDS011;22694;51.040;3.684;2023-02-15T02:00:20;16.92;;;14.98;;
36709;SDS011;22694;51.040;3.684;2023-02-15T02:02:47;17.77;;;15.75;;
36709;SDS011;22694;51.040;3.684;2023-02-15T02:05:15;20.40;;;16.10;;
36709;SDS011;22694;51.040;3.684;2023-02-15T02:07:42;17.88;;;15.23;;
36709;SDS011;22694;51.040;3.684;2023-02-15T02:10:12;17.73;;;14.90;;
36709;SDS011;22694;51.040;3.684;2023-02-15T02:12:41;20.52;;;16.25;;
36709;SDS011;22694;51.040;3.684;2023-02-15T02:15:09;19.67;;;16.25;;
36709;SDS011;22694;51.040;3.684;2023-02-15T02:23:06;19.92;;;15.57;;
36709;SDS011;22694;51.040;3.684;2023-02-15T02:28:40;19.10;;;15.77;;
36709;SDS011;22694;51.040;3.684;2023-02-15T02:36:42;18.63;;;15.50;;
36709;SDS011;22694;51.040;3.684;2023-02-15T02:42:39;17.80;;;15.00;;
36709;SDS011;22694;51.040;3.684;2023-02-15T02:45:09;19.48;;;16.10;;
36709;SDS011;22694;51.040;3.684;2023-02-15T02:47:48;19.67;;;15.93;;
36709;SDS011;22694;51.040;3.684;2023-02-15T02:50:22;19.20;;;15.75;;
36709;SDS011;22694;51.040;3.684;2023-02-15T02:52:52;19.13;;;15.63;;
36709;SDS011;22694;51.040;3.684;2023-02-15T02:55:20;17.08;;;15.15;;
36709;SDS011;22694;51.040;3.684;2023-02-15T02:57:54;19.67;;;15.80;;
36709;SDS011;22694;51.040;3.684;2023-02-15T03:00:34;17.95;;;15.15;;
36709;SDS011;22694;51.040;3.684;2023-02-15T03:03:11;17.60;;;15.07;;
36709;SDS011;22694;51.040;3.684;2023-02-15T03:05:41;18.17;;;14.85;;
36709;SDS011;22694;51.040;3.684;2023-02-15T03:08:09;19.88;;;14.75;;
36709;SDS011;22694;51.040;3.684;2023-02-15T03:10:37;19.75;;;15.73;;
36709;SDS011;22694;51.040;3.684;2023-02-15T03:13:05;18.95;;;15.35;;
36709;SDS011;22694;51.040;3.684;2023-02-15T03:15:36;17.25;;;14.57;;
36709;SDS011;22694;51.040;3.684;2023-02-15T03:18:23;18.92;;;15.65;;
36709;SDS011;22694;51.040;3.684;2023-02-15T03:20:53;18.08;;;15.52;;
36709;SDS011;22694;51.040;3.684;2023-02-15T03:23:24;19.35;;;15.68;;
36709;SDS011;22694;51.040;3.684;2023-02-15T03:25:56;17.80;;;15.43;;
36709;SDS011;22694;51.040;3.684;2023-02-15T03:28:37;19.23;;;14.85;;
36709;SDS011;22694;51.040;3.684;2023-02-15T03:31:07;17.90;;;15.23;;
36709;SDS011;22694;51.040;3.684;2023-02-15T03:33:35;18.63;;;14.68;;
36709;SDS011;22694;51.040;3.684;2023-02-15T03:36:14;17.70;;;14.73;;
36709;SDS011;22694;51.040;3.684;2023-02-15T03:45:00;18.58;;;14.73;;
36709;SDS011;22694;51.040;3.684;2023-02-15T03:47:31;19.55;;;15.32;;
36709;SDS011;22694;51.040;3.684;2023-02-15T03:50:02;19.25;;;15.40;;
36709;SDS011;22694;51.040;3.684;2023-02-15T03:52:54;18.13;;;14.88;;
36709;SDS011;22694;51.040;3.684;2023-02-15T03:55:22;19.98;;;16.65;;
36709;SDS011;22694;51.040;3.684;2023-02-15T03:57:48;16.88;;;14.88;;
36709;SDS011;22694;51.040;3.684;2023-02-15T04:00:33;20.48;;;16.20;;
36709;SDS011;22694;51.040;3.684;2023-02-15T04:03:27;19.27;;;17.15;;
36709;SDS011;22694;51.040;3.684;2023-02-15T04:06:04;21.92;;;16.38;;
36709;SDS011;22694;51.040;3.684;2023-02-15T04:08:30;19.55;;;15.95;;
36709;SDS011;22694;51.040;3.684;2023-02-15T04:11:14;20.25;;;16.48;;
36709;SDS011;22694;51.040;3.684;2023-02-15T04:13:40;21.33;;;16.67;;
36709;SDS011;22694;51.040;3.684;2023-02-15T04:16:05;20.85;;;16.48;;
36709;SDS011;22694;51.040;3.684;2023-02-15T04:18:38;16.73;;;13.05;;
36709;SDS011;22694;51.040;3.684;2023-02-15T04:21:24;18.10;;;14.73;;
36709;SDS011;22694;51.040;3.684;2023-02-15T04:24:10;21.25;;;16.42;;
36709;SDS011;22694;51.040;3.684;2023-02-15T04:26:54;20.13;;;16.15;;
36709;SDS011;22694;51.040;3.684;2023-02-15T04:29:23;22.73;;;17.45;;
36709;SDS011;22694;51.040;3.684;2023-02-15T04:31:50;23.52;;;18.10;;
36709;SDS011;22694;51.040;3.684;2023-02-15T04:34:17;19.05;;;16.20;;
36709;SDS011;22694;51.040;3.684;2023-02-15T04:36:43;20.35;;;16.50;;
36709;SDS011;22694;51.040;3.684;2023-02-15T04:39:09;20.90;;;17.77;;
36709;SDS011;22694;51.040;3.684;2023-02-15T04:41:37;20.80;;;17.58;;
36709;SDS011;22694;51.040;3.684;2023-02-15T04:44:03;21.55;;;17.48;;
36709;SDS011;22694;51.040;3.684;2023-02-15T04:46:28;21.92;;;18.10;;
36709;SDS011;22694;51.040;3.684;2023-02-15T04:48:54;21.00;;;17.92;;
36709;SDS011;22694;51.040;3.684;2023-02-15T04:51:20;22.65;;;18.70;;
36709;SDS011;22694;51.040;3.684;2023-02-15T04:53:46;22.38;;;18.48;;
36709;SDS011;22694;51.040;3.684;2023-02-15T04:56:11;24.15;;;18.63;;
36709;SDS011;22694;51.040;3.684;2023-02-15T04:58:37;23.38;;;19.25;;
36709;SDS011;22694;51.040;3.684;2023-02-15T05:01:06;23.75;;;18.48;;
36709;SDS011;22694;51.040;3.684;2023-02-15T05:03:34;24.38;;;18.88;;
36709;SDS011;22694;51.040;3.684;2023-02-15T05:06:00;22.70;;;18.20;;
36709;SDS011;22694;51.040;3.684;2023-02-15T05:08:26;22.42;;;18.20;;
36709;SDS011;22694;51.040;3.684;2023-02-15T05:10:52;23.17;;;18.05;;
36709;SDS011;22694;51.040;3.684;2023-02-15T05:13:17;23.58;;;18.90;;
36709;SDS011;22694;51.040;3.684;2023-02-15T05:15:47;20.90;;;17.58;;
36709;SDS011;22694;51.040;3.684;2023-02-15T05:18:16;23.77;;;18.70;;
36709;SDS011;22694;51.040;3.684;2023-02-15T05:20:43;26.02;;;19.33;;
36709;SDS011;22694;51.040;3.684;2023-02-15T05:23:09;22.83;;;18.60;;
36709;SDS011;22694;51.040;3.684;2023-02-15T05:25:34;23.13;;;19.05;;
36709;SDS011;22694;51.040;3.684;2023-02-15T05:28:19;22.10;;;17.55;;
36709;SDS011;22694;51.040;3.684;2023-02-15T05:30:45;23.63;;;18.08;;
36709;SDS011;22694;51.040;3.684;2023-02-15T05:33:12;23.63;;;18.83;;
36709;SDS011;22694;51.040;3.684;2023-02-15T05:35:38;27.35;;;19.33;;
36709;SDS011;22694;51.040;3.684;2023-02-15T05:38:04;24.67;;;17.95;;
36709;SDS011;22694;51.040;3.684;2023-02-15T05:40:29;21.60;;;17.55;;
36709;SDS011;22694;51.040;3.684;2023-02-15T05:42:55;22.70;;;19.17;;
36709;SDS011;22694;51.040;3.684;2023-02-15T05:45:21;23.70;;;18.75;;
36709;SDS011;22694;51.040;3.684;2023-02-15T05:47:47;25.42;;;18.73;;
36709;SDS011;22694;51.040;3.684;2023-02-15T05:50:13;23.77;;;17.77;;
36709;SDS011;22694;51.040;3.684;2023-02-15T05:52:38;25.48;;;19.33;;
36709;SDS011;22694;51.040;3.684;2023-02-15T05:55:04;22.45;;;18.65;;
36709;SDS011;22694;51.040;3.684;2023-02-15T05:57:30;23.42;;;18.85;;
36709;SDS011;22694;51.040;3.684;2023-02-15T05:59:56;21.83;;;18.38;;
36709;SDS011;22694;51.040;3.684;2023-02-15T06:02:22;24.70;;;19.48;;
36709;SDS011;22694;51.040;3.684;2023-02-15T06:04:47;24.52;;;19.42;;
36709;SDS011;22694;51.040;3.684;2023-02-15T06:07:13;25.48;;;19.38;;
36709;SDS011;22694;51.040;3.684;2023-02-15T06:09:39;22.85;;;19.13;;
36709;SDS011;22694;51.040;3.684;2023-02-15T06:12:04;25.42;;;20.23;;
36709;SDS011;22694;51.040;3.684;2023-02-15T06:14:30;24.40;;;19.17;;
36709;SDS011;22694;51.040;3.684;2023-02-15T06:16:56;25.15;;;19.95;;
36709;SDS011;22694;51.040;3.684;2023-02-15T06:19:21;26.17;;;20.27;;
36709;SDS011;22694;51.040;3.684;2023-02-15T06:21:48;24.52;;;19.63;;
36709;SDS011;22694;51.040;3.684;2023-02-15T06:24:14;24.08;;;19.83;;
36709;SDS011;22694;51.040;3.684;2023-02-15T06:26:40;28.65;;;20.67;;
36709;SDS011;22694;51.040;3.684;2023-02-15T06:29:06;24.77;;;19.23;;
36709;SDS011;22694;51.040;3.684;2023-02-15T06:31:31;23.55;;;19.23;;
36709;SDS011;22694;51.040;3.684;2023-02-15T06:33:57;23.77;;;19.02;;
36709;SDS011;22694;51.040;3.684;2023-02-15T06:36:28;23.95;;;18.60;;
36709;SDS011;22694;51.040;3.684;2023-02-15T06:38:55;25.67;;;19.63;;
36709;SDS011;22694;51.040;3.684;2023-02-15T06:41:20;23.45;;;19.17;;
36709;SDS011;22694;51.040;3.684;2023-02-15T06:43:46;26.25;;;19.20;;
36709;SDS011;22694;51.040;3.684;2023-02-15T06:46:12;26.00;;;19.52;;
36709;SDS011;22694;51.040;3.684;2023-02-15T06:48:38;26.55;;;19.40;;
36709;SDS011;22694;51.040;3.684;2023-02-15T06:51:03;24.60;;;19.02;;
36709;SDS011;22694;51.040;3.684;2023-02-15T06:53:29;22.98;;;18.20;;
36709;SDS011;22694;51.040;3.684;2023-02-15T06:56:04;24.80;;;18.08;;
36709;SDS011;22694;51.040;3.684;2023-02-15T06:58:38;22.25;;;18.02;;
36709;SDS011;22694;51.040;3.684;2023-02-15T07:01:04;23.23;;;18.48;;
36709;SDS011;22694;51.040;3.684;2023-02-15T07:03:31;24.98;;;19.38;;
36709;SDS011;22694;51.040;3.684;2023-02-15T07:05:57;23.42;;;18.85;;
36709;SDS011;22694;51.040;3.684;2023-02-15T07:08:25;21.92;;;18.13;;
36709;SDS011;22694;51.040;3.684;2023-02-15T07:10:51;23.75;;;18.48;;
36709;SDS011;22694;51.040;3.684;2023-02-15T07:13:18;23.52;;;19.13;;
36709;SDS011;22694;51.040;3.684;2023-02-15T07:15:44;24.13;;;18.80;;
36709;SDS011;22694;51.040;3.684;2023-02-15T07:18:10;24.48;;;18.30;;
36709;SDS011;22694;51.040;3.684;2023-02-15T07:20:36;22.20;;;17.38;;
36709;SDS011;22694;51.040;3.684;2023-02-15T07:23:03;22.48;;;17.75;;
36709;SDS011;22694;51.040;3.684;2023-02-15T07:25:29;22.92;;;17.98;;
36709;SDS011;22694;51.040;3.684;2023-02-15T07:27:56;24.15;;;18.75;;
36709;SDS011;22694;51.040;3.684;2023-02-15T07:30:25;23.30;;;18.38;;
36709;SDS011;22694;51.040;3.684;2023-02-15T07:32:55;25.20;;;18.80;;
36709;SDS011;22694;51.040;3.684;2023-02-15T07:35:52;23.67;;;18.48;;
36709;SDS011;22694;51.040;3.684;2023-02-15T07:38:20;23.77;;;18.90;;
36709;SDS011;22694;51.040;3.684;2023-02-15T07:40:46;22.92;;;18.00;;
36709;SDS011;22694;51.040;3.684;2023-02-15T07:43:12;22.85;;;18.02;;
36709;SDS011;22694;51.040;3.684;2023-02-15T07:45:38;20.98;;;17.60;;
36709;SDS011;22694;51.040;3.684;2023-02-15T07:48:05;23.45;;;17.48;;
36709;SDS011;22694;51.040;3.684;2023-02-15T07:50:31;23.58;;;18.25;;
36709;SDS011;22694;51.040;3.684;2023-02-15T07:52:57;22.75;;;17.17;;
36709;SDS011;22694;51.040;3.684;2023-02-15T07:55:23;22.48;;;18.33;;
36709;SDS011;22694;51.040;3.684;2023-02-15T07:57:50;21.33;;;17.30;;
36709;SDS011;22694;51.040;3.684;2023-02-15T08:00:17;22.60;;;17.15;;
36709;SDS011;22694;51.040;3.684;2023-02-15T08:02:49;22.85;;;17.63;;
36709;SDS011;22694;51.040;3.684;2023-02-15T08:05:36;22.30;;;17.30;;
36709;SDS011;22694;51.040;3.684;2023-02-15T08:08:03;22.65;;;17.30;;
36709;SDS011;22694;51.040;3.684;2023-02-15T08:10:29;21.05;;;16.80;;
36709;SDS011;22694;51.040;3.684;2023-02-15T08:13:13;21.73;;;16.60;;
36709;SDS011;22694;51.040;3.684;2023-02-15T08:15:38;21.95;;;16.45;;
36709;SDS011;22694;51.040;3.684;2023-02-15T08:18:04;20.30;;;14.85;;
36709;SDS011;22694;51.040;3.684;2023-02-15T08:20:29;15.27;;;11.02;;
36709;SDS011;22694;51.040;3.684;2023-02-15T08:22:56;14.20;;;11.32;;
36709;SDS011;22694;51.040;3.684;2023-02-15T08:25:21;21.25;;;15.95;;
36709;SDS011;22694;51.040;3.684;2023-02-15T08:27:47;21.40;;;15.18;;
36709;SDS011;22694;51.040;3.684;2023-02-15T08:30:13;25.05;;;15.68;;
36709;SDS011;22694;51.040;3.684;2023-02-15T08:32:39;20.45;;;14.93;;
36709;SDS011;22694;51.040;3.684;2023-02-15T08:35:05;19.95;;;15.68;;
36709;SDS011;22694;51.040;3.684;2023-02-15T08:37:30;19.60;;;14.70;;
36709;SDS011;22694;51.040;3.684;2023-02-15T08:39:56;18.63;;;15.15;;
36709;SDS011;22694;51.040;3.684;2023-02-15T08:42:22;19.17;;;14.88;;
36709;SDS011;22694;51.040;3.684;2023-02-15T08:44:47;18.25;;;15.35;;
36709;SDS011;22694;51.040;3.684;2023-02-15T08:47:15;19.05;;;15.13;;
36709;SDS011;22694;51.040;3.684;2023-02-15T08:49:41;16.92;;;14.13;;
36709;SDS011;22694;51.040;3.684;2023-02-15T08:52:06;21.63;;;15.32;;
36709;SDS011;22694;51.040;3.684;2023-02-15T08:54:32;20.60;;;15.45;;
36709;SDS011;22694;51.040;3.684;2023-02-15T08:56:58;19.52;;;14.85;;
36709;SDS011;22694;51.040;3.684;2023-02-15T08:59:24;19.70;;;15.27;;
36709;SDS011;22694;51.040;3.684;2023-02-15T09:01:52;20.15;;;15.27;;
36709;SDS011;22694;51.040;3.684;2023-02-15T09:04:19;19.75;;;15.25;;
36709;SDS011;22694;51.040;3.684;2023-02-15T09:06:46;18.80;;;14.75;;
36709;SDS011;22694;51.040;3.684;2023-02-15T09:09:13;19.42;;;15.88;;
36709;SDS011;22694;51.040;3.684;2023-02-15T09:11:40;22.45;;;16.50;;
36709;SDS011;22694;51.040;3.684;2023-02-15T09:14:09;17.85;;;14.73;;
36709;SDS011;22694;51.040;3.684;2023-02-15T09:16:39;18.92;;;16.00;;
36709;SDS011;22694;51.040;3.684;2023-02-15T09:19:06;20.50;;;15.30;;
36709;SDS011;22694;51.040;3.684;2023-02-15T09:21:33;22.35;;;16.10;;
36709;SDS011;22694;51.040;3.684;2023-02-15T09:24:01;18.73;;;15.07;;
36709;SDS011;22694;51.040;3.684;2023-02-15T09:26:30;20.55;;;15.70;;
36709;SDS011;22694;51.040;3.684;2023-02-15T09:28:58;20.25;;;14.90;;
36709;SDS011;22694;51.040;3.684;2023-02-15T09:31:32;20.45;;;15.77;;
36709;SDS011;22694;51.040;3.684;2023-02-15T09:34:02;20.40;;;15.40;;
36709;SDS011;22694;51.040;3.684;2023-02-15T09:36:31;20.40;;;15.00;;
36709;SDS011;22694;51.040;3.684;2023-02-15T10:01:25;16.88;;;13.80;;
36709;SDS011;22694;51.040;3.684;2023-02-15T10:06:45;18.67;;;14.60;;
36709;SDS011;22694;51.040;3.684;2023-02-15T10:12:11;20.20;;;15.00;;
36709;SDS011;22694;51.040;3.684;2023-02-15T10:20:58;17.70;;;13.43;;
36709;SDS011;22694;51.040;3.684;2023-02-15T10:26:50;17.50;;;13.70;;
36709;SDS011;22694;51.040;3.684;2023-02-15T10:32:35;18.40;;;14.02;;
36709;SDS011;22694;51.040;3.684;2023-02-15T10:34:56;14.30;;;10.15;;
36709;SDS011;22694;51.040;3.684;2023-02-15T10:37:43;13.88;;;9.48;;
36709;SDS011;22694;51.040;3.684;2023-02-15T10:45:56;18.85;;;12.65;;
36709;SDS011;22694;51.040;3.684;2023-02-15T10:51:01;17.60;;;13.38;;
36709;SDS011;22694;51.040;3.684;2023-02-15T10:56:18;16.10;;;12.90;;
36709;SDS011;22694;51.040;3.684;2023-02-15T11:09:59;16.27;;;12.75;;
36709;SDS011;22694;51.040;3.684;2023-02-15T11:12:38;18.33;;;13.90;;
36709;SDS011;22694;51.040;3.684;2023-02-15T11:15:19;17.15;;;13.10;;
36709;SDS011;22694;51.040;3.684;2023-02-15T11:20:58;16.27;;;12.15;;
36709;SDS011;22694;51.040;3.684;2023-02-15T11:23:25;23.63;;;14.27;;
36709;SDS011;22694;51.040;3.684;2023-02-15T11:25:54;19.73;;;14.75;;
36709;SDS011;22694;51.040;3.684;2023-02-15T11:28:45;23.60;;;15.15;;
36709;SDS011;22694;51.040;3.684;2023-02-15T11:31:15;21.45;;;14.45;;
36709;SDS011;22694;51.040;3.684;2023-02-15T11:33:48;23.55;;;16.02;;
36709;SDS011;22694;51.040;3.684;2023-02-15T11:36:40;23.50;;;15.80;;
36709;SDS011;22694;51.040;3.684;2023-02-15T11:39:12;19.10;;;14.02;;
36709;SDS011;22694;51.040;3.684;2023-02-15T11:41:41;18.63;;;13.88;;
36709;SDS011;22694;51.040;3.684;2023-02-15T11:44:39;21.08;;;13.65;;
36709;SDS011;22694;51.040;3.684;2023-02-15T11:47:12;20.33;;;13.25;;
36709;SDS011;22694;51.040;3.684;2023-02-15T11:49:38;18.63;;;13.80;;
36709;SDS011;22694;51.040;3.684;2023-02-15T11:52:10;17.30;;;12.55;;
36709;SDS011;22694;51.040;3.684;2023-02-15T11:54:47;16.15;;;11.98;;
36709;SDS011;22694;51.040;3.684;2023-02-15T11:57:30;16.02;;;12.40;;
36709;SDS011;22694;51.040;3.684;2023-02-15T12:00:06;16.65;;;12.77;;
36709;SDS011;22694;51.040;3.684;2023-02-15T12:02:43;17.50;;;12.70;;
36709;SDS011;22694;51.040;3.684;2023-02-15T12:05:14;15.15;;;12.23;;
36709;SDS011;22694;51.040;3.684;2023-02-15T12:07:45;15.35;;;11.80;;
36709;SDS011;22694;51.040;3.684;2023-02-15T12:10:28;14.52;;;11.70;;
36709;SDS011;22694;51.040;3.684;2023-02-15T12:13:12;16.20;;;12.75;;
36709;SDS011;22694;51.040;3.684;2023-02-15T12:15:47;14.63;;;11.10;;
36709;SDS011;22694;51.040;3.684;2023-02-15T12:18:27;15.35;;;11.35;;
36709;SDS011;22694;51.040;3.684;2023-02-15T12:21:03;14.73;;;10.75;;
36709;SDS011;22694;51.040;3.684;2023-02-15T12:23:32;16.80;;;12.13;;
36709;SDS011;22694;51.040;3.684;2023-02-15T12:25:58;16.63;;;14.05;;
36709;SDS011;22694;51.040;3.684;2023-02-15T12:28:38;19.15;;;14.93;;
36709;SDS011;22694;51.040;3.684;2023-02-15T12:31:10;17.67;;;14.13;;
36709;SDS011;22694;51.040;3.684;2023-02-15T12:33:46;20.42;;;15.38;;
36709;SDS011;22694;51.040;3.684;2023-02-15T12:36:15;21.83;;;15.02;;
36709;SDS011;22694;51.040;3.684;2023-02-15T12:38:48;20.45;;;14.57;;
36709;SDS011;22694;51.040;3.684;2023-02-15T12:41:36;17.77;;;14.13;;
36709;SDS011;22694;51.040;3.684;2023-02-15T12:44:04;20.45;;;14.90;;
36709;SDS011;22694;51.040;3.684;2023-02-15T12:46:30;21.20;;;15.35;;
36709;SDS011;22694;51.040;3.684;2023-02-15T12:51:46;17.63;;;13.15;;
36709;SDS011;22694;51.040;3.684;2023-02-15T12:54:24;17.38;;;13.45;;
36709;SDS011;22694;51.040;3.684;2023-02-15T12:57:12;17.50;;;14.13;;
36709;SDS011;22694;51.040;3.684;2023-02-15T12:59:47;16.58;;;14.02;;
36709;SDS011;22694;51.040;3.684;2023-02-15T13:02:24;18.65;;;15.10;;
36709;SDS011;22694;51.040;3.684;2023-02-15T13:05:14;20.10;;;14.63;;
36709;SDS011;22694;51.040;3.684;2023-02-15T13:07:49;18.33;;;13.93;;
36709;SDS011;22694;51.040;3.684;2023-02-15T13:10:22;20.00;;;14.43;;
36709;SDS011;22694;51.040;3.684;2023-02-15T13:12:49;19.50;;;14.75;;
36709;SDS011;22694;51.040;3.684;2023-02-15T13:15:25;18.17;;;14.23;;
36709;SDS011;22694;51.040;3.684;2023-02-15T13:17:56;19.00;;;14.20;;
36709;SDS011;22694;51.040;3.684;2023-02-15T13:20:23;21.23;;;15.18;;
36709;SDS011;22694;51.040;3.684;2023-02-15T13:22:53;18.55;;;14.45;;
36709;SDS011;22694;51.040;3.684;2023-02-15T13:25:24;18.38;;;14.40;;
36709;SDS011;22694;51.040;3.684;2023-02-15T13:27:52;18.30;;;14.07;;
36709;SDS011;22694;51.040;3.684;2023-02-15T13:30:35;18.80;;;14.63;;
36709;SDS011;22694;51.040;3.684;2023-02-15T13:33:04;20.05;;;15.10;;
36709;SDS011;22694;51.040;3.684;2023-02-15T13:35:41;17.90;;;14.57;;
36709;SDS011;22694;51.040;3.684;2023-02-15T13:44:04;19.15;;;14.15;;
36709;SDS011;22694;51.040;3.684;2023-02-15T13:58:01;17.95;;;13.93;;
36709;SDS011;22694;51.040;3.684;2023-02-15T14:02:56;17.98;;;13.48;;
36709;SDS011;22694;51.040;3.684;2023-02-15T14:11:30;18.20;;;14.13;;
36709;SDS011;22694;51.040;3.684;2023-02-15T14:17:56;15.40;;;12.65;;
36709;SDS011;22694;51.040;3.684;2023-02-15T14:20:34;13.02;;;9.27;;
36709;SDS011;22694;51.040;3.684;2023-02-15T14:31:55;19.00;;;13.02;;
36709;SDS011;22694;51.040;3.684;2023-02-15T14:34:24;17.67;;;14.55;;
36709;SDS011;22694;51.040;3.684;2023-02-15T14:37:08;15.65;;;13.57;;
36709;SDS011;22694;51.040;3.684;2023-02-15T14:39:41;17.90;;;13.50;;
36709;SDS011;22694;51.040;3.684;2023-02-15T14:42:34;17.02;;;13.43;;
36709;SDS011;22694;51.040;3.684;2023-02-15T14:45:15;17.92;;;14.40;;
36709;SDS011;22694;51.040;3.684;2023-02-15T14:47:55;19.90;;;14.20;;
36709;SDS011;22694;51.040;3.684;2023-02-15T14:53:15;18.80;;;13.98;;
36709;SDS011;22694;51.040;3.684;2023-02-15T14:55:44;17.65;;;13.55;;
36709;SDS011;22694;51.040;3.684;2023-02-15T14:58:11;18.00;;;13.88;;
36709;SDS011;22694;51.040;3.684;2023-02-15T15:00:39;18.63;;;14.45;;
36709;SDS011;22694;51.040;3.684;2023-02-15T15:03:22;19.88;;;14.52;;
36709;SDS011;22694;51.040;3.684;2023-02-15T15:05:51;23.40;;;14.60;;
36709;SDS011;22694;51.040;3.684;2023-02-15T15:08:29;12.95;;;8.30;;
36709;SDS011;22694;51.040;3.684;2023-02-15T15:11:36;14.82;;;10.20;;
36709;SDS011;22694;51.040;3.684;2023-02-15T15:13:55;13.38;;;9.65;;
36709;SDS011;22694;51.040;3.684;2023-02-15T15:19:03;13.52;;;8.77;;
36709;SDS011;22694;51.040;3.684;2023-02-15T15:41:03;12.90;;;10.02;;
36709;SDS011;22694;51.040;3.684;2023-02-15T15:43:43;12.68;;;9.15;;
36709;SDS011;22694;51.040;3.684;2023-02-15T15:49:05;14.13;;;10.35;;
36709;SDS011;22694;51.040;3.684;2023-02-15T15:51:39;14.95;;;10.73;;
36709;SDS011;22694;51.040;3.684;2023-02-15T15:54:11;12.95;;;10.45;;
36709;SDS011;22694;51.040;3.684;2023-02-15T15:56:41;14.25;;;10.43;;
36709;SDS011;22694;51.040;3.684;2023-02-15T15:59:13;12.40;;;10.23;;
36709;SDS011;22694;51.040;3.684;2023-02-15T16:01:46;13.90;;;10.25;;
36709;SDS011;22694;51.040;3.684;2023-02-15T16:04:13;19.83;;;14.52;;
36709;SDS011;22694;51.040;3.684;2023-02-15T16:06:56;30.92;;;22.40;;
36709;SDS011;22694;51.040;3.684;2023-02-15T16:09:24;28.50;;;20.33;;
36709;SDS011;22694;51.040;3.684;2023-02-15T16:11:52;30.70;;;22.25;;
36709;SDS011;22694;51.040;3.684;2023-02-15T16:14:30;31.35;;;23.10;;
36709;SDS011;22694;51.040;3.684;2023-02-15T16:17:00;24.15;;;14.57;;
36709;SDS011;22694;51.040;3.684;2023-02-15T16:20:02;22.50;;;17.48;;
36709;SDS011;22694;51.040;3.684;2023-02-15T16:22:25;25.90;;;18.73;;
36709;SDS011;22694;51.040;3.684;2023-02-15T16:27:39;23.83;;;18.58;;
36709;SDS011;22694;51.040;3.684;2023-02-15T16:30:23;24.73;;;19.27;;
36709;SDS011;22694;51.040;3.684;2023-02-15T16:33:04;25.52;;;19.30;;
36709;SDS011;22694;51.040;3.684;2023-02-15T16:35:33;26.55;;;18.45;;
36709;SDS011;22694;51.040;3.684;2023-02-15T16:38:00;27.67;;;20.02;;
36709;SDS011;22694;51.040;3.684;2023-02-15T16:40:28;25.52;;;19.65;;
36709;SDS011;22694;51.040;3.684;2023-02-15T16:43:01;22.83;;;18.88;;
36709;SDS011;22694;51.040;3.684;2023-02-15T16:45:31;25.80;;;19.87;;
36709;SDS011;22694;51.040;3.684;2023-02-15T16:47:58;23.50;;;18.75;;
36709;SDS011;22694;51.040;3.684;2023-02-15T16:50:33;25.20;;;20.13;;
36709;SDS011;22694;51.040;3.684;2023-02-15T16:53:01;23.83;;;19.05;;
36709;SDS011;22694;51.040;3.684;2023-02-15T16:55:30;25.83;;;19.08;;
36709;SDS011;22694;51.040;3.684;2023-02-15T16:58:02;24.60;;;18.80;;
36709;SDS011;22694;51.040;3.684;2023-02-15T17:00:31;24.58;;;19.45;;
36709;SDS011;22694;51.040;3.684;2023-02-15T17:08:25;24.58;;;18.65;;
36709;SDS011;22694;51.040;3.684;2023-02-15T17:11:33;26.27;;;18.67;;
36709;SDS011;22694;51.040;3.684;2023-02-15T17:19:32;22.15;;;18.10;;
36709;SDS011;22694;51.040;3.684;2023-02-15T17:22:15;16.88;;;12.52;;
36709;SDS011;22694;51.040;3.684;2023-02-15T17:24:45;23.77;;;13.35;;
36709;SDS011;22694;51.040;3.684;2023-02-15T17:27:20;18.38;;;14.15;;
36709;SDS011;22694;51.040;3.684;2023-02-15T17:29:52;20.92;;;15.85;;
36709;SDS011;22694;51.040;3.684;2023-02-15T17:32:22;22.98;;;16.90;;
36709;SDS011;22694;51.040;3.684;2023-02-15T17:37:48;22.02;;;17.27;;
36709;SDS011;22694;51.040;3.684;2023-02-15T17:40:19;26.02;;;17.35;;
36709;SDS011;22694;51.040;3.684;2023-02-15T17:42:50;21.38;;;17.27;;
36709;SDS011;22694;51.040;3.684;2023-02-15T17:45:19;23.23;;;17.02;;
36709;SDS011;22694;51.040;3.684;2023-02-15T17:47:47;24.45;;;17.88;;